sensor_id;sensor_type;location;lat;lon;timestamp;P1;durP1;ratioP1;P2;durP2;ratioP2
1725;SDS011;41776;48.260;8.928;2023-03-01T00:01:14;31.60;;;13.60;;
1725;SDS011;41776;48.260;8.928;2023-03-01T00:03:42;29.47;;;13.40;;
1725;SDS011;41776;48.260;8.928;2023-03-01T00:06:09;26.80;;;11.97;;
1725;SDS011;41776;48.260;8.928;2023-03-01T00:08:35;32.33;;;12.43;;
1725;SDS011;41776;48.260;8.928;2023-03-01T00:11:04;28.13;;;12.03;;
1725;SDS011;41776;48.260;8.928;2023-03-01T00:13:33;31.43;;;11.87;;
1725;SDS011;41776;48.260;8.928;2023-03-01T00:16:01;29.60;;;12.67;;
1725;SDS011;41776;48.260;8.928;2023-03-01T00:18:28;30.90;;;13.60;;
1725;SDS011;41776;48.260;8.928;2023-03-01T00:20:55;37.53;;;13.57;;
1725;SDS011;41776;48.260;8.928;2023-03-01T00:23:22;35.50;;;13.10;;
1725;SDS011;41776;48.260;8.928;2023-03-01T00:25:49;30.00;;;12.60;;
1725;SDS011;41776;48.260;8.928;2023-03-01T00:28:17;29.60;;;12.70;;
1725;SDS011;41776;48.260;8.928;2023-03-01T00:30:44;33.47;;;13.33;;
1725;SDS011;41776;48.260;8.928;2023-03-01T00:33:11;31.30;;;12.80;;
1725;SDS011;41776;48.260;8.928;2023-03-01T00:35:37;38.97;;;14.00;;
1725;SDS011;41776;48.260;8.928;2023-03-01T00:38:04;33.47;;;13.40;;
1725;SDS011;41776;48.260;8.928;2023-03-01T00:40:32;33.63;;;14.43;;
1725;SDS011;41776;48.260;8.928;2023-03-01T00:43:01;36.33;;;14.10;;
1725;SDS011;41776;48.260;8.928;2023-03-01T00:45:29;33.50;;;13.27;;
1725;SDS011;41776;48.260;8.928;2023-03-01T00:47:56;28.97;;;12.33;;
1725;SDS011;41776;48.260;8.928;2023-03-01T00:50:23;35.30;;;12.87;;
1725;SDS011;41776;48.260;8.928;2023-03-01T00:52:51;32.40;;;13.67;;
1725;SDS011;41776;48.260;8.928;2023-03-01T00:55:19;36.50;;;13.17;;
1725;SDS011;41776;48.260;8.928;2023-03-01T00:57:45;35.87;;;14.73;;
1725;SDS011;41776;48.260;8.928;2023-03-01T01:00:12;38.57;;;14.33;;
1725;SDS011;41776;48.260;8.928;2023-03-01T01:02:40;36.40;;;15.20;;
1725;SDS011;41776;48.260;8.928;2023-03-01T01:05:07;37.43;;;15.57;;
1725;SDS011;41776;48.260;8.928;2023-03-01T01:07:34;35.63;;;14.67;;
1725;SDS011;41776;48.260;8.928;2023-03-01T01:10:01;38.43;;;16.60;;
1725;SDS011;41776;48.260;8.928;2023-03-01T01:12:27;32.07;;;13.80;;
1725;SDS011;41776;48.260;8.928;2023-03-01T01:14:54;36.63;;;15.03;;
1725;SDS011;41776;48.260;8.928;2023-03-01T01:17:20;40.40;;;13.97;;
1725;SDS011;41776;48.260;8.928;2023-03-01T01:19:48;35.30;;;14.97;;
1725;SDS011;41776;48.260;8.928;2023-03-01T01:22:15;32.77;;;14.23;;
1725;SDS011;41776;48.260;8.928;2023-03-01T01:24:41;31.70;;;13.40;;
1725;SDS011;41776;48.260;8.928;2023-03-01T01:27:08;26.00;;;11.10;;
1725;SDS011;41776;48.260;8.928;2023-03-01T01:29:34;26.27;;;12.90;;
1725;SDS011;41776;48.260;8.928;2023-03-01T01:32:02;28.23;;;13.70;;
1725;SDS011;41776;48.260;8.928;2023-03-01T01:34:29;37.43;;;14.60;;
1725;SDS011;41776;48.260;8.928;2023-03-01T01:36:57;31.00;;;12.73;;
1725;SDS011;41776;48.260;8.928;2023-03-01T01:39:27;37.43;;;14.53;;
1725;SDS011;41776;48.260;8.928;2023-03-01T01:41:54;37.23;;;14.27;;
1725;SDS011;41776;48.260;8.928;2023-03-01T01:44:21;30.67;;;13.57;;
1725;SDS011;41776;48.260;8.928;2023-03-01T01:46:50;40.80;;;14.97;;
1725;SDS011;41776;48.260;8.928;2023-03-01T01:49:24;38.20;;;13.93;;
1725;SDS011;41776;48.260;8.928;2023-03-01T01:51:59;35.53;;;14.23;;
1725;SDS011;41776;48.260;8.928;2023-03-01T01:54:31;34.13;;;13.80;;
1725;SDS011;41776;48.260;8.928;2023-03-01T01:57:06;35.90;;;15.20;;
1725;SDS011;41776;48.260;8.928;2023-03-01T01:59:35;36.07;;;15.00;;
1725;SDS011;41776;48.260;8.928;2023-03-01T02:02:03;37.03;;;14.73;;
1725;SDS011;41776;48.260;8.928;2023-03-01T02:04:30;36.53;;;14.83;;
1725;SDS011;41776;48.260;8.928;2023-03-01T02:07:01;32.60;;;15.53;;
1725;SDS011;41776;48.260;8.928;2023-03-01T02:09:31;32.00;;;14.60;;
1725;SDS011;41776;48.260;8.928;2023-03-01T02:11:58;37.10;;;14.80;;
1725;SDS011;41776;48.260;8.928;2023-03-01T02:14:26;38.20;;;15.13;;
1725;SDS011;41776;48.260;8.928;2023-03-01T02:16:52;32.53;;;14.27;;
1725;SDS011;41776;48.260;8.928;2023-03-01T02:19:22;39.67;;;15.73;;
1725;SDS011;41776;48.260;8.928;2023-03-01T02:21:56;38.13;;;15.50;;
1725;SDS011;41776;48.260;8.928;2023-03-01T02:24:31;33.77;;;14.50;;
1725;SDS011;41776;48.260;8.928;2023-03-01T02:27:07;34.27;;;15.57;;
1725;SDS011;41776;48.260;8.928;2023-03-01T02:29:37;31.43;;;13.73;;
1725;SDS011;41776;48.260;8.928;2023-03-01T02:32:03;37.57;;;15.67;;
1725;SDS011;41776;48.260;8.928;2023-03-01T02:34:31;36.97;;;15.53;;
1725;SDS011;41776;48.260;8.928;2023-03-01T02:37:00;39.87;;;16.60;;
1725;SDS011;41776;48.260;8.928;2023-03-01T02:39:30;42.87;;;16.10;;
1725;SDS011;41776;48.260;8.928;2023-03-01T02:42:06;32.17;;;14.93;;
1725;SDS011;41776;48.260;8.928;2023-03-01T02:44:38;34.60;;;15.90;;
1725;SDS011;41776;48.260;8.928;2023-03-01T02:47:05;34.83;;;14.97;;
1725;SDS011;41776;48.260;8.928;2023-03-01T02:49:32;38.07;;;14.73;;
1725;SDS011;41776;48.260;8.928;2023-03-01T02:52:19;33.33;;;14.77;;
1725;SDS011;41776;48.260;8.928;2023-03-01T02:54:55;35.60;;;15.13;;
1725;SDS011;41776;48.260;8.928;2023-03-01T02:57:27;33.43;;;14.30;;
1725;SDS011;41776;48.260;8.928;2023-03-01T02:59:57;37.97;;;16.10;;
1725;SDS011;41776;48.260;8.928;2023-03-01T03:02:31;35.73;;;15.10;;
1725;SDS011;41776;48.260;8.928;2023-03-01T03:05:05;35.57;;;15.87;;
1725;SDS011;41776;48.260;8.928;2023-03-01T03:07:34;37.43;;;15.47;;
1725;SDS011;41776;48.260;8.928;2023-03-01T03:10:02;35.87;;;15.87;;
1725;SDS011;41776;48.260;8.928;2023-03-01T03:12:29;33.77;;;14.97;;
1725;SDS011;41776;48.260;8.928;2023-03-01T03:14:57;42.53;;;16.27;;
1725;SDS011;41776;48.260;8.928;2023-03-01T03:17:23;36.50;;;15.63;;
1725;SDS011;41776;48.260;8.928;2023-03-01T03:19:50;38.10;;;16.17;;
1725;SDS011;41776;48.260;8.928;2023-03-01T03:22:17;39.27;;;16.93;;
1725;SDS011;41776;48.260;8.928;2023-03-01T03:24:43;36.73;;;16.13;;
1725;SDS011;41776;48.260;8.928;2023-03-01T03:27:09;37.70;;;16.50;;
1725;SDS011;41776;48.260;8.928;2023-03-01T03:29:36;35.67;;;15.90;;
1725;SDS011;41776;48.260;8.928;2023-03-01T03:32:04;34.73;;;15.97;;
1725;SDS011;41776;48.260;8.928;2023-03-01T03:34:30;44.30;;;17.00;;
1725;SDS011;41776;48.260;8.928;2023-03-01T03:36:57;37.43;;;16.23;;
1725;SDS011;41776;48.260;8.928;2023-03-01T03:39:24;41.10;;;16.17;;
1725;SDS011;41776;48.260;8.928;2023-03-01T03:41:51;39.80;;;16.03;;
1725;SDS011;41776;48.260;8.928;2023-03-01T03:44:17;44.63;;;16.93;;
1725;SDS011;41776;48.260;8.928;2023-03-01T03:46:44;41.60;;;16.83;;
1725;SDS011;41776;48.260;8.928;2023-03-01T03:49:12;38.27;;;17.27;;
1725;SDS011;41776;48.260;8.928;2023-03-01T03:51:38;38.40;;;16.80;;
1725;SDS011;41776;48.260;8.928;2023-03-01T03:54:05;38.90;;;16.77;;
1725;SDS011;41776;48.260;8.928;2023-03-01T03:56:31;38.77;;;16.90;;
1725;SDS011;41776;48.260;8.928;2023-03-01T03:58:58;42.53;;;17.53;;
1725;SDS011;41776;48.260;8.928;2023-03-01T04:01:24;42.97;;;17.13;;
1725;SDS011;41776;48.260;8.928;2023-03-01T04:03:51;39.43;;;16.67;;
1725;SDS011;41776;48.260;8.928;2023-03-01T04:06:20;43.53;;;17.60;;
1725;SDS011;41776;48.260;8.928;2023-03-01T04:08:47;37.43;;;16.17;;
1725;SDS011;41776;48.260;8.928;2023-03-01T04:11:15;42.20;;;17.70;;
1725;SDS011;41776;48.260;8.928;2023-03-01T04:13:55;38.40;;;16.53;;
1725;SDS011;41776;48.260;8.928;2023-03-01T04:16:23;38.07;;;16.60;;
1725;SDS011;41776;48.260;8.928;2023-03-01T04:18:50;41.00;;;17.47;;
1725;SDS011;41776;48.260;8.928;2023-03-01T04:21:18;39.83;;;17.20;;
1725;SDS011;41776;48.260;8.928;2023-03-01T04:23:46;41.97;;;18.33;;
1725;SDS011;41776;48.260;8.928;2023-03-01T04:26:13;45.63;;;18.50;;
1725;SDS011;41776;48.260;8.928;2023-03-01T04:28:40;43.10;;;17.00;;
1725;SDS011;41776;48.260;8.928;2023-03-01T04:31:10;41.00;;;18.30;;
1725;SDS011;41776;48.260;8.928;2023-03-01T04:33:42;44.10;;;18.13;;
1725;SDS011;41776;48.260;8.928;2023-03-01T04:36:11;41.20;;;17.33;;
1725;SDS011;41776;48.260;8.928;2023-03-01T04:38:40;45.53;;;19.07;;
1725;SDS011;41776;48.260;8.928;2023-03-01T04:41:08;44.97;;;18.90;;
1725;SDS011;41776;48.260;8.928;2023-03-01T04:43:36;48.63;;;19.47;;
1725;SDS011;41776;48.260;8.928;2023-03-01T04:46:04;47.67;;;18.73;;
1725;SDS011;41776;48.260;8.928;2023-03-01T04:48:33;38.00;;;17.60;;
1725;SDS011;41776;48.260;8.928;2023-03-01T04:51:00;45.40;;;18.33;;
1725;SDS011;41776;48.260;8.928;2023-03-01T04:53:27;41.90;;;18.63;;
1725;SDS011;41776;48.260;8.928;2023-03-01T04:55:54;41.87;;;17.90;;
1725;SDS011;41776;48.260;8.928;2023-03-01T04:58:22;42.27;;;19.20;;
1725;SDS011;41776;48.260;8.928;2023-03-01T05:00:49;46.93;;;18.80;;
1725;SDS011;41776;48.260;8.928;2023-03-01T05:03:15;43.83;;;18.53;;
1725;SDS011;41776;48.260;8.928;2023-03-01T05:05:43;42.57;;;18.83;;
1725;SDS011;41776;48.260;8.928;2023-03-01T05:08:11;47.80;;;19.63;;
1725;SDS011;41776;48.260;8.928;2023-03-01T05:10:43;48.93;;;18.07;;
1725;SDS011;41776;48.260;8.928;2023-03-01T05:13:11;45.67;;;17.83;;
1725;SDS011;41776;48.260;8.928;2023-03-01T05:15:41;45.90;;;18.47;;
1725;SDS011;41776;48.260;8.928;2023-03-01T05:18:07;42.97;;;18.53;;
1725;SDS011;41776;48.260;8.928;2023-03-01T05:20:36;46.67;;;17.97;;
1725;SDS011;41776;48.260;8.928;2023-03-01T05:23:03;44.00;;;18.57;;
1725;SDS011;41776;48.260;8.928;2023-03-01T05:25:31;44.87;;;18.30;;
1725;SDS011;41776;48.260;8.928;2023-03-01T05:27:58;47.30;;;18.63;;
1725;SDS011;41776;48.260;8.928;2023-03-01T05:30:24;42.60;;;18.47;;
1725;SDS011;41776;48.260;8.928;2023-03-01T05:32:53;42.03;;;18.57;;
1725;SDS011;41776;48.260;8.928;2023-03-01T05:35:20;41.90;;;18.33;;
1725;SDS011;41776;48.260;8.928;2023-03-01T05:37:48;46.70;;;18.80;;
1725;SDS011;41776;48.260;8.928;2023-03-01T05:40:16;42.77;;;18.43;;
1725;SDS011;41776;48.260;8.928;2023-03-01T05:42:44;36.70;;;17.07;;
1725;SDS011;41776;48.260;8.928;2023-03-01T05:45:11;42.37;;;18.30;;
1725;SDS011;41776;48.260;8.928;2023-03-01T05:47:38;44.37;;;18.43;;
1725;SDS011;41776;48.260;8.928;2023-03-01T05:50:11;47.47;;;18.37;;
1725;SDS011;41776;48.260;8.928;2023-03-01T05:52:39;46.43;;;18.97;;
1725;SDS011;41776;48.260;8.928;2023-03-01T05:55:06;43.23;;;19.03;;
1725;SDS011;41776;48.260;8.928;2023-03-01T05:57:33;45.27;;;19.33;;
1725;SDS011;41776;48.260;8.928;2023-03-01T05:59:59;42.87;;;17.73;;
1725;SDS011;41776;48.260;8.928;2023-03-01T06:02:26;41.00;;;18.73;;
1725;SDS011;41776;48.260;8.928;2023-03-01T06:04:54;48.93;;;20.20;;
1725;SDS011;41776;48.260;8.928;2023-03-01T06:07:22;71.87;;;25.50;;
1725;SDS011;41776;48.260;8.928;2023-03-01T06:09:48;57.73;;;20.97;;
1725;SDS011;41776;48.260;8.928;2023-03-01T06:12:15;45.80;;;18.73;;
1725;SDS011;41776;48.260;8.928;2023-03-01T06:14:41;49.30;;;20.27;;
1725;SDS011;41776;48.260;8.928;2023-03-01T06:17:08;56.17;;;22.03;;
1725;SDS011;41776;48.260;8.928;2023-03-01T06:19:34;49.40;;;20.47;;
1725;SDS011;41776;48.260;8.928;2023-03-01T06:22:00;51.10;;;19.90;;
1725;SDS011;41776;48.260;8.928;2023-03-01T06:24:28;41.87;;;18.67;;
1725;SDS011;41776;48.260;8.928;2023-03-01T06:26:55;46.70;;;19.70;;
1725;SDS011;41776;48.260;8.928;2023-03-01T06:29:21;44.73;;;18.93;;
1725;SDS011;41776;48.260;8.928;2023-03-01T06:31:48;39.70;;;16.27;;
1725;SDS011;41776;48.260;8.928;2023-03-01T06:34:14;36.70;;;16.07;;
1725;SDS011;41776;48.260;8.928;2023-03-01T06:36:41;40.63;;;17.73;;
1725;SDS011;41776;48.260;8.928;2023-03-01T06:39:08;40.67;;;17.67;;
1725;SDS011;41776;48.260;8.928;2023-03-01T06:41:36;36.93;;;16.20;;
1725;SDS011;41776;48.260;8.928;2023-03-01T06:44:02;44.80;;;18.45;;
1725;SDS011;41776;48.260;8.928;2023-03-01T06:46:30;39.37;;;17.10;;
1725;SDS011;41776;48.260;8.928;2023-03-01T06:48:56;39.33;;;17.13;;
1725;SDS011;41776;48.260;8.928;2023-03-01T06:51:23;40.97;;;17.17;;
1725;SDS011;41776;48.260;8.928;2023-03-01T06:53:50;41.27;;;17.27;;
1725;SDS011;41776;48.260;8.928;2023-03-01T06:56:16;35.00;;;14.93;;
1725;SDS011;41776;48.260;8.928;2023-03-01T06:58:44;33.60;;;14.57;;
1725;SDS011;41776;48.260;8.928;2023-03-01T07:01:10;33.20;;;14.23;;
1725;SDS011;41776;48.260;8.928;2023-03-01T07:03:37;32.33;;;14.13;;
1725;SDS011;41776;48.260;8.928;2023-03-01T07:06:04;33.13;;;13.33;;
1725;SDS011;41776;48.260;8.928;2023-03-01T07:08:30;27.83;;;12.33;;
1725;SDS011;41776;48.260;8.928;2023-03-01T07:10:57;27.07;;;12.80;;
1725;SDS011;41776;48.260;8.928;2023-03-01T07:13:24;31.73;;;12.90;;
1725;SDS011;41776;48.260;8.928;2023-03-01T07:15:52;32.70;;;12.33;;
1725;SDS011;41776;48.260;8.928;2023-03-01T07:18:19;26.00;;;12.13;;
1725;SDS011;41776;48.260;8.928;2023-03-01T07:20:45;26.87;;;11.60;;
1725;SDS011;41776;48.260;8.928;2023-03-01T07:23:12;25.10;;;12.50;;
1725;SDS011;41776;48.260;8.928;2023-03-01T07:25:38;27.47;;;12.20;;
1725;SDS011;41776;48.260;8.928;2023-03-01T07:28:05;31.67;;;12.37;;
1725;SDS011;41776;48.260;8.928;2023-03-01T07:30:31;27.23;;;11.97;;
1725;SDS011;41776;48.260;8.928;2023-03-01T07:32:59;33.40;;;14.33;;
1725;SDS011;41776;48.260;8.928;2023-03-01T07:35:26;33.67;;;14.67;;
1725;SDS011;41776;48.260;8.928;2023-03-01T07:37:53;33.47;;;14.43;;
1725;SDS011;41776;48.260;8.928;2023-03-01T07:40:19;32.93;;;14.63;;
1725;SDS011;41776;48.260;8.928;2023-03-01T07:42:46;36.10;;;14.57;;
1725;SDS011;41776;48.260;8.928;2023-03-01T07:45:12;31.23;;;13.60;;
1725;SDS011;41776;48.260;8.928;2023-03-01T07:47:39;29.30;;;13.60;;
1725;SDS011;41776;48.260;8.928;2023-03-01T07:50:08;31.20;;;15.03;;
1725;SDS011;41776;48.260;8.928;2023-03-01T07:52:35;32.27;;;14.27;;
1725;SDS011;41776;48.260;8.928;2023-03-01T07:55:02;33.50;;;14.67;;
1725;SDS011;41776;48.260;8.928;2023-03-01T07:57:29;33.27;;;14.17;;
1725;SDS011;41776;48.260;8.928;2023-03-01T07:59:56;31.33;;;13.53;;
1725;SDS011;41776;48.260;8.928;2023-03-01T08:02:23;31.67;;;12.60;;
1725;SDS011;41776;48.260;8.928;2023-03-01T08:04:49;28.30;;;12.60;;
1725;SDS011;41776;48.260;8.928;2023-03-01T08:07:18;28.43;;;12.47;;
1725;SDS011;41776;48.260;8.928;2023-03-01T08:09:44;30.40;;;12.70;;
1725;SDS011;41776;48.260;8.928;2023-03-01T08:12:13;28.83;;;13.00;;
1725;SDS011;41776;48.260;8.928;2023-03-01T08:14:41;27.80;;;13.07;;
1725;SDS011;41776;48.260;8.928;2023-03-01T08:17:07;24.03;;;11.43;;
1725;SDS011;41776;48.260;8.928;2023-03-01T08:19:34;23.57;;;11.57;;
1725;SDS011;41776;48.260;8.928;2023-03-01T08:22:01;25.67;;;11.40;;
1725;SDS011;41776;48.260;8.928;2023-03-01T08:24:29;28.50;;;12.73;;
1725;SDS011;41776;48.260;8.928;2023-03-01T08:26:56;25.10;;;11.53;;
1725;SDS011;41776;48.260;8.928;2023-03-01T08:29:24;26.97;;;11.97;;
1725;SDS011;41776;48.260;8.928;2023-03-01T08:31:50;25.27;;;11.67;;
1725;SDS011;41776;48.260;8.928;2023-03-01T08:34:17;25.07;;;11.60;;
1725;SDS011;41776;48.260;8.928;2023-03-01T08:36:45;26.97;;;12.07;;
1725;SDS011;41776;48.260;8.928;2023-03-01T08:39:12;23.70;;;11.83;;
1725;SDS011;41776;48.260;8.928;2023-03-01T08:41:41;27.53;;;11.73;;
1725;SDS011;41776;48.260;8.928;2023-03-01T08:44:08;24.03;;;11.40;;
1725;SDS011;41776;48.260;8.928;2023-03-01T08:46:36;28.07;;;12.23;;
1725;SDS011;41776;48.260;8.928;2023-03-01T08:49:08;25.10;;;10.97;;
1725;SDS011;41776;48.260;8.928;2023-03-01T08:51:42;27.17;;;11.70;;
1725;SDS011;41776;48.260;8.928;2023-03-01T08:54:10;26.70;;;11.53;;
1725;SDS011;41776;48.260;8.928;2023-03-01T08:56:38;22.23;;;11.00;;
1725;SDS011;41776;48.260;8.928;2023-03-01T08:59:06;23.33;;;11.60;;
1725;SDS011;41776;48.260;8.928;2023-03-01T09:01:33;25.33;;;12.27;;
1725;SDS011;41776;48.260;8.928;2023-03-01T09:04:00;26.93;;;12.30;;
1725;SDS011;41776;48.260;8.928;2023-03-01T09:06:26;26.10;;;12.43;;
1725;SDS011;41776;48.260;8.928;2023-03-01T09:08:58;25.43;;;12.80;;
1725;SDS011;41776;48.260;8.928;2023-03-01T09:11:25;26.97;;;12.37;;
1725;SDS011;41776;48.260;8.928;2023-03-01T09:13:52;25.33;;;12.30;;
1725;SDS011;41776;48.260;8.928;2023-03-01T09:16:20;28.67;;;13.00;;
1725;SDS011;41776;48.260;8.928;2023-03-01T09:18:49;26.23;;;11.93;;
1725;SDS011;41776;48.260;8.928;2023-03-01T09:21:17;26.17;;;12.23;;
1725;SDS011;41776;48.260;8.928;2023-03-01T09:23:46;28.47;;;12.73;;
1725;SDS011;41776;48.260;8.928;2023-03-01T09:26:15;27.03;;;12.70;;
1725;SDS011;41776;48.260;8.928;2023-03-01T09:28:44;28.97;;;13.37;;
1725;SDS011;41776;48.260;8.928;2023-03-01T09:31:11;29.43;;;12.87;;
1725;SDS011;41776;48.260;8.928;2023-03-01T09:33:40;31.13;;;13.10;;
1725;SDS011;41776;48.260;8.928;2023-03-01T09:36:10;26.07;;;12.13;;
1725;SDS011;41776;48.260;8.928;2023-03-01T09:38:39;29.43;;;12.50;;
1725;SDS011;41776;48.260;8.928;2023-03-01T09:41:09;26.30;;;11.83;;
1725;SDS011;41776;48.260;8.928;2023-03-01T09:43:45;26.47;;;13.00;;
1725;SDS011;41776;48.260;8.928;2023-03-01T09:46:18;26.07;;;11.80;;
1725;SDS011;41776;48.260;8.928;2023-03-01T09:48:50;27.37;;;12.67;;
1725;SDS011;41776;48.260;8.928;2023-03-01T09:51:26;24.27;;;12.37;;
1725;SDS011;41776;48.260;8.928;2023-03-01T09:53:55;25.83;;;12.20;;
1725;SDS011;41776;48.260;8.928;2023-03-01T09:56:24;26.37;;;13.07;;
1725;SDS011;41776;48.260;8.928;2023-03-01T09:58:57;27.13;;;12.73;;
1725;SDS011;41776;48.260;8.928;2023-03-01T10:01:34;24.10;;;12.77;;
1725;SDS011;41776;48.260;8.928;2023-03-01T10:07:06;29.77;;;13.10;;
1725;SDS011;41776;48.260;8.928;2023-03-01T10:09:48;26.00;;;12.37;;
1725;SDS011;41776;48.260;8.928;2023-03-01T10:12:15;25.63;;;12.47;;
1725;SDS011;41776;48.260;8.928;2023-03-01T10:14:48;25.80;;;12.20;;
1725;SDS011;41776;48.260;8.928;2023-03-01T10:17:23;24.67;;;11.40;;
1725;SDS011;41776;48.260;8.928;2023-03-01T10:19:55;22.77;;;11.60;;
1725;SDS011;41776;48.260;8.928;2023-03-01T10:22:33;29.50;;;12.13;;
1725;SDS011;41776;48.260;8.928;2023-03-01T10:25:01;33.27;;;13.03;;
1725;SDS011;41776;48.260;8.928;2023-03-01T10:27:29;29.07;;;13.00;;
1725;SDS011;41776;48.260;8.928;2023-03-01T10:30:09;32.87;;;13.40;;
1725;SDS011;41776;48.260;8.928;2023-03-01T10:32:42;29.47;;;13.27;;
1725;SDS011;41776;48.260;8.928;2023-03-01T10:35:28;29.90;;;12.83;;
1725;SDS011;41776;48.260;8.928;2023-03-01T10:37:58;28.93;;;13.03;;
1725;SDS011;41776;48.260;8.928;2023-03-01T10:40:29;27.60;;;12.27;;
1725;SDS011;41776;48.260;8.928;2023-03-01T10:42:57;24.80;;;12.37;;
1725;SDS011;41776;48.260;8.928;2023-03-01T10:45:29;29.13;;;12.47;;
1725;SDS011;41776;48.260;8.928;2023-03-01T10:48:08;23.50;;;11.63;;
1725;SDS011;41776;48.260;8.928;2023-03-01T10:50:39;27.30;;;11.83;;
1725;SDS011;41776;48.260;8.928;2023-03-01T10:53:16;27.83;;;12.57;;
1725;SDS011;41776;48.260;8.928;2023-03-01T10:55:48;24.27;;;12.67;;
1725;SDS011;41776;48.260;8.928;2023-03-01T10:58:27;23.43;;;12.33;;
1725;SDS011;41776;48.260;8.928;2023-03-01T11:00:55;27.33;;;12.50;;
1725;SDS011;41776;48.260;8.928;2023-03-01T11:03:24;33.07;;;13.37;;
1725;SDS011;41776;48.260;8.928;2023-03-01T11:05:54;24.87;;;11.63;;
1725;SDS011;41776;48.260;8.928;2023-03-01T11:08:36;27.20;;;12.70;;
1725;SDS011;41776;48.260;8.928;2023-03-01T11:11:06;24.50;;;12.07;;
1725;SDS011;41776;48.260;8.928;2023-03-01T11:13:47;30.00;;;11.93;;
1725;SDS011;41776;48.260;8.928;2023-03-01T11:16:22;30.27;;;13.23;;
1725;SDS011;41776;48.260;8.928;2023-03-01T11:18:55;25.30;;;13.03;;
1725;SDS011;41776;48.260;8.928;2023-03-01T11:21:25;27.53;;;12.40;;
1725;SDS011;41776;48.260;8.928;2023-03-01T11:23:54;30.90;;;12.90;;
1725;SDS011;41776;48.260;8.928;2023-03-01T11:26:21;27.80;;;12.00;;
1725;SDS011;41776;48.260;8.928;2023-03-01T11:28:50;27.87;;;12.83;;
1725;SDS011;41776;48.260;8.928;2023-03-01T11:31:20;28.23;;;13.63;;
1725;SDS011;41776;48.260;8.928;2023-03-01T11:33:50;24.13;;;11.83;;
1725;SDS011;41776;48.260;8.928;2023-03-01T11:36:26;32.20;;;12.73;;
1725;SDS011;41776;48.260;8.928;2023-03-01T11:39:01;28.10;;;13.40;;
1725;SDS011;41776;48.260;8.928;2023-03-01T11:41:31;26.33;;;13.13;;
1725;SDS011;41776;48.260;8.928;2023-03-01T11:44:03;28.70;;;12.73;;
1725;SDS011;41776;48.260;8.928;2023-03-01T11:46:51;27.23;;;12.40;;
1725;SDS011;41776;48.260;8.928;2023-03-01T11:49:43;27.93;;;12.10;;
1725;SDS011;41776;48.260;8.928;2023-03-01T11:52:25;28.93;;;12.43;;
1725;SDS011;41776;48.260;8.928;2023-03-01T11:55:07;31.13;;;11.83;;
1725;SDS011;41776;48.260;8.928;2023-03-01T11:57:49;27.63;;;11.73;;
1725;SDS011;41776;48.260;8.928;2023-03-01T12:00:40;29.23;;;11.90;;
1725;SDS011;41776;48.260;8.928;2023-03-01T12:03:25;28.40;;;11.80;;
1725;SDS011;41776;48.260;8.928;2023-03-01T12:09:05;28.27;;;12.70;;
1725;SDS011;41776;48.260;8.928;2023-03-01T12:11:42;28.37;;;12.63;;
1725;SDS011;41776;48.260;8.928;2023-03-01T12:14:29;28.17;;;12.17;;
1725;SDS011;41776;48.260;8.928;2023-03-01T12:17:19;28.07;;;13.37;;
1725;SDS011;41776;48.260;8.928;2023-03-01T12:20:07;34.10;;;12.93;;
1725;SDS011;41776;48.260;8.928;2023-03-01T12:22:46;28.03;;;13.43;;
1725;SDS011;41776;48.260;8.928;2023-03-01T12:25:29;26.27;;;13.63;;
1725;SDS011;41776;48.260;8.928;2023-03-01T12:28:03;29.00;;;13.87;;
1725;SDS011;41776;48.260;8.928;2023-03-01T12:30:46;30.47;;;12.97;;
1725;SDS011;41776;48.260;8.928;2023-03-01T12:33:26;28.67;;;13.47;;
1725;SDS011;41776;48.260;8.928;2023-03-01T12:36:09;25.53;;;12.70;;
1725;SDS011;41776;48.260;8.928;2023-03-01T12:38:49;28.67;;;12.37;;
1725;SDS011;41776;48.260;8.928;2023-03-01T12:41:24;27.93;;;13.20;;
1725;SDS011;41776;48.260;8.928;2023-03-01T12:44:07;25.47;;;12.33;;
1725;SDS011;41776;48.260;8.928;2023-03-01T12:46:45;25.60;;;12.80;;
1725;SDS011;41776;48.260;8.928;2023-03-01T12:49:19;30.67;;;12.77;;
1725;SDS011;41776;48.260;8.928;2023-03-01T12:51:51;27.17;;;13.17;;
1725;SDS011;41776;48.260;8.928;2023-03-01T12:54:23;26.77;;;12.47;;
1725;SDS011;41776;48.260;8.928;2023-03-01T12:56:54;28.67;;;12.67;;
1725;SDS011;41776;48.260;8.928;2023-03-01T12:59:24;27.60;;;13.00;;
1725;SDS011;41776;48.260;8.928;2023-03-01T13:02:02;29.30;;;13.60;;
1725;SDS011;41776;48.260;8.928;2023-03-01T13:04:40;26.50;;;13.37;;
1725;SDS011;41776;48.260;8.928;2023-03-01T13:07:21;25.23;;;13.00;;
1725;SDS011;41776;48.260;8.928;2023-03-01T13:09:55;26.93;;;12.97;;
1725;SDS011;41776;48.260;8.928;2023-03-01T13:12:47;27.07;;;13.90;;
1725;SDS011;41776;48.260;8.928;2023-03-01T13:15:32;25.83;;;12.67;;
1725;SDS011;41776;48.260;8.928;2023-03-01T13:18:01;26.60;;;13.43;;
1725;SDS011;41776;48.260;8.928;2023-03-01T13:20:31;32.73;;;13.43;;
1725;SDS011;41776;48.260;8.928;2023-03-01T13:23:02;25.97;;;12.97;;
1725;SDS011;41776;48.260;8.928;2023-03-01T13:25:32;23.47;;;12.13;;
1725;SDS011;41776;48.260;8.928;2023-03-01T13:31:06;27.30;;;12.83;;
1725;SDS011;41776;48.260;8.928;2023-03-01T13:33:39;25.40;;;12.17;;
1725;SDS011;41776;48.260;8.928;2023-03-01T13:36:08;25.90;;;13.60;;
1725;SDS011;41776;48.260;8.928;2023-03-01T13:38:47;25.90;;;12.60;;
1725;SDS011;41776;48.260;8.928;2023-03-01T13:44:23;28.77;;;12.10;;
1725;SDS011;41776;48.260;8.928;2023-03-01T13:46:56;29.33;;;12.30;;
1725;SDS011;41776;48.260;8.928;2023-03-01T13:49:25;25.57;;;13.07;;
1725;SDS011;41776;48.260;8.928;2023-03-01T13:51:54;25.97;;;12.03;;
1725;SDS011;41776;48.260;8.928;2023-03-01T13:54:24;27.70;;;12.57;;
1725;SDS011;41776;48.260;8.928;2023-03-01T13:56:55;24.03;;;12.53;;
1725;SDS011;41776;48.260;8.928;2023-03-01T13:59:24;25.13;;;12.17;;
1725;SDS011;41776;48.260;8.928;2023-03-01T14:01:51;29.03;;;12.40;;
1725;SDS011;41776;48.260;8.928;2023-03-01T14:04:20;29.47;;;12.67;;
1725;SDS011;41776;48.260;8.928;2023-03-01T14:06:47;21.67;;;11.03;;
1725;SDS011;41776;48.260;8.928;2023-03-01T14:09:14;26.13;;;12.43;;
1725;SDS011;41776;48.260;8.928;2023-03-01T14:12:02;22.20;;;11.80;;
1725;SDS011;41776;48.260;8.928;2023-03-01T14:14:43;23.83;;;12.17;;
1725;SDS011;41776;48.260;8.928;2023-03-01T14:17:18;19.53;;;11.37;;
1725;SDS011;41776;48.260;8.928;2023-03-01T14:19:59;19.70;;;10.90;;
1725;SDS011;41776;48.260;8.928;2023-03-01T14:22:27;24.00;;;11.70;;
1725;SDS011;41776;48.260;8.928;2023-03-01T14:24:56;21.83;;;12.03;;
1725;SDS011;41776;48.260;8.928;2023-03-01T14:27:28;21.87;;;11.90;;
1725;SDS011;41776;48.260;8.928;2023-03-01T14:30:01;23.43;;;11.40;;
1725;SDS011;41776;48.260;8.928;2023-03-01T14:32:29;26.43;;;12.03;;
1725;SDS011;41776;48.260;8.928;2023-03-01T14:34:58;21.87;;;11.73;;
1725;SDS011;41776;48.260;8.928;2023-03-01T14:37:26;21.17;;;11.60;;
1725;SDS011;41776;48.260;8.928;2023-03-01T14:39:54;21.90;;;11.70;;
1725;SDS011;41776;48.260;8.928;2023-03-01T14:42:22;20.65;;;11.77;;
1725;SDS011;41776;48.260;8.928;2023-03-01T14:44:53;18.50;;;10.95;;
1725;SDS011;41776;48.260;8.928;2023-03-01T14:47:25;19.13;;;11.40;;
1725;SDS011;41776;48.260;8.928;2023-03-01T14:49:56;20.60;;;11.77;;
1725;SDS011;41776;48.260;8.928;2023-03-01T14:52:25;21.27;;;12.50;;
1725;SDS011;41776;48.260;8.928;2023-03-01T14:55:00;32.38;;;11.68;;
1725;SDS011;41776;48.260;8.928;2023-03-01T14:57:30;22.13;;;11.38;;
1725;SDS011;41776;48.260;8.928;2023-03-01T14:59:57;21.58;;;11.73;;
1725;SDS011;41776;48.260;8.928;2023-03-01T15:02:27;19.95;;;12.00;;